createdAt,value
2018-09-27T00:01:46.494Z,19.29
2018-09-27T00:04:12.876Z,19.25
2018-09-27T00:06:39.207Z,19.19
2018-09-27T00:09:05.604Z,19.20
2018-09-27T00:11:31.981Z,19.22
2018-09-27T00:13:58.356Z,19.24
2018-09-27T00:16:24.704Z,19.21
2018-09-27T00:18:51.051Z,19.22
2018-09-27T00:21:17.443Z,19.16
2018-09-27T00:23:43.773Z,19.13
2018-09-27T00:26:10.183Z,19.12
2018-09-27T00:28:36.532Z,19.15
2018-09-27T00:31:02.941Z,19.16
2018-09-27T00:33:29.280Z,19.16
2018-09-27T00:35:55.649Z,19.13
2018-09-27T00:38:22.036Z,19.14
2018-09-27T00:40:48.419Z,19.10
2018-09-27T00:43:14.786Z,19.05
2018-09-27T00:45:41.180Z,19.02
2018-09-27T00:48:07.558Z,19.06
2018-09-27T00:50:33.900Z,19.07
2018-09-27T00:53:00.810Z,19.06
2018-09-27T00:55:27.204Z,19.06
2018-09-27T00:57:53.604Z,19.04
2018-09-27T01:00:19.998Z,19.02
2018-09-27T01:02:46.332Z,18.97
2018-09-27T01:05:12.729Z,18.75
2018-09-27T01:07:39.164Z,18.53
2018-09-27T01:10:05.536Z,18.40
2018-09-27T01:12:31.956Z,18.16
2018-09-27T01:14:58.390Z,18.07
2018-09-27T01:17:24.748Z,17.99
2018-09-27T01:19:51.107Z,17.99
2018-09-27T01:22:17.511Z,17.87
2018-09-27T01:24:43.852Z,17.80
2018-09-27T01:27:10.187Z,17.81
2018-09-27T01:29:36.580Z,17.87
2018-09-27T01:32:02.909Z,17.81
2018-09-27T01:34:29.345Z,17.81
2018-09-27T01:36:55.724Z,17.78
2018-09-27T01:39:22.172Z,17.79
2018-09-27T01:41:48.522Z,17.81
2018-09-27T01:44:14.904Z,17.80
2018-09-27T01:46:41.297Z,17.78
2018-09-27T01:49:07.640Z,17.78
2018-09-27T01:51:33.988Z,17.71
2018-09-27T01:54:00.323Z,17.80
2018-09-27T01:56:26.657Z,17.72
2018-09-27T01:58:52.991Z,17.75
2018-09-27T02:01:19.381Z,17.74
2018-09-27T02:03:45.782Z,17.68
2018-09-27T02:06:12.142Z,17.62
2018-09-27T02:08:38.677Z,17.69
2018-09-27T02:11:05.000Z,17.70
2018-09-27T02:13:31.379Z,17.54
2018-09-27T02:15:57.769Z,17.64
2018-09-27T02:18:24.123Z,17.61
2018-09-27T02:20:50.531Z,17.65
2018-09-27T02:23:16.956Z,17.57
2018-09-27T02:25:43.372Z,17.54
2018-09-27T02:28:09.724Z,17.51
2018-09-27T02:30:36.053Z,17.49
2018-09-27T02:33:02.398Z,17.56
2018-09-27T02:35:28.735Z,17.50
2018-09-27T02:37:55.063Z,17.49
2018-09-27T02:40:21.390Z,17.39
2018-09-27T02:42:47.745Z,17.34
2018-09-27T02:45:14.129Z,17.44
2018-09-27T02:47:40.480Z,17.41
2018-09-27T02:50:06.816Z,17.41
2018-09-27T02:52:33.150Z,17.42
2018-09-27T02:54:59.667Z,17.40
2018-09-27T02:57:26.011Z,17.36
2018-09-27T02:59:52.378Z,17.36
2018-09-27T03:02:18.853Z,17.29
2018-09-27T03:04:45.286Z,17.31
2018-09-27T03:07:11.646Z,17.34
2018-09-27T03:09:37.961Z,17.25
2018-09-27T03:12:04.290Z,17.29
2018-09-27T03:14:30.616Z,17.29
2018-09-27T03:16:57.116Z,17.24
2018-09-27T03:19:23.501Z,17.23
2018-09-27T03:21:49.904Z,17.27
2018-09-27T03:24:16.239Z,17.19
2018-09-27T03:26:42.665Z,17.22
2018-09-27T03:29:09.088Z,17.16
2018-09-27T03:31:35.416Z,17.11
2018-09-27T03:34:01.765Z,17.27
2018-09-27T03:36:28.141Z,17.26
2018-09-27T03:38:54.495Z,17.25
2018-09-27T03:41:20.868Z,17.32
2018-09-27T03:43:47.203Z,17.35
2018-09-27T03:46:13.560Z,17.37
2018-09-27T03:48:39.942Z,17.39
2018-09-27T03:51:06.320Z,17.38
2018-09-27T03:53:32.648Z,17.40
2018-09-27T03:55:59.015Z,17.43
2018-09-27T03:58:25.357Z,17.41
2018-09-27T04:00:51.674Z,17.44
2018-09-27T04:03:18.112Z,17.36
2018-09-27T04:05:44.473Z,17.43
2018-09-27T04:08:10.834Z,17.42
2018-09-27T04:10:37.241Z,17.43
2018-09-27T04:13:03.599Z,17.42
2018-09-27T04:15:29.983Z,17.43
2018-09-27T04:17:56.316Z,17.41
2018-09-27T04:20:22.672Z,17.40
2018-09-27T04:22:49.081Z,17.42
2018-09-27T04:25:15.419Z,17.38
2018-09-27T04:27:41.757Z,17.45
2018-09-27T04:30:08.095Z,17.38
2018-09-27T04:32:34.415Z,17.41
2018-09-27T04:35:00.762Z,17.42
2018-09-27T04:37:27.170Z,17.41
2018-09-27T04:39:53.574Z,17.52
2018-09-27T04:42:19.951Z,17.51
2018-09-27T04:44:46.302Z,17.55
2018-09-27T04:47:12.661Z,17.53
2018-09-27T04:49:39.000Z,17.68
2018-09-27T04:52:05.325Z,17.67
2018-09-27T04:54:31.701Z,17.64
2018-09-27T04:56:58.029Z,17.65
2018-09-27T04:59:24.455Z,17.67
2018-09-27T05:01:50.895Z,17.72
2018-09-27T05:04:17.229Z,17.81
2018-09-27T05:06:43.660Z,17.89
2018-09-27T05:09:10.025Z,18.02
2018-09-27T05:11:36.468Z,18.06
2018-09-27T05:14:02.831Z,18.21
2018-09-27T05:16:29.222Z,18.24
2018-09-27T05:18:55.594Z,18.31
2018-09-27T05:21:22.008Z,18.44
2018-09-27T05:23:48.374Z,18.54
2018-09-27T05:26:14.761Z,18.71
2018-09-27T05:28:41.609Z,18.82
2018-09-27T05:31:07.933Z,18.92
2018-09-27T05:33:34.301Z,19.01
2018-09-27T05:36:00.666Z,19.11
2018-09-27T05:38:27.058Z,19.19
2018-09-27T05:40:53.462Z,19.24
2018-09-27T05:43:19.824Z,19.32
2018-09-27T05:45:46.195Z,19.41
2018-09-27T05:48:12.657Z,19.55
2018-09-27T05:50:39.021Z,19.72
2018-09-27T05:53:05.424Z,19.78
2018-09-27T05:55:31.781Z,19.91
2018-09-27T05:57:58.162Z,19.97
2018-09-27T06:00:24.548Z,20.04
2018-09-27T06:02:51.047Z,20.24
2018-09-27T06:05:17.404Z,20.29
2018-09-27T06:07:43.807Z,20.38
2018-09-27T06:10:10.248Z,20.50
2018-09-27T06:12:36.600Z,20.63
2018-09-27T06:15:02.958Z,20.64
2018-09-27T06:17:29.314Z,20.80
2018-09-27T06:19:55.780Z,20.89
2018-09-27T06:22:22.074Z,20.91
2018-09-27T06:24:48.462Z,20.89
2018-09-27T06:27:14.797Z,21.05
2018-09-27T06:29:41.133Z,21.11
2018-09-27T06:32:07.505Z,21.26
2018-09-27T06:34:33.856Z,21.32
2018-09-27T06:37:00.204Z,21.46
2018-09-27T06:39:26.536Z,21.65
2018-09-27T06:41:52.966Z,21.66
2018-09-27T06:44:19.371Z,21.72
2018-09-27T06:46:45.828Z,21.84
2018-09-27T06:49:12.196Z,21.77
2018-09-27T06:51:38.654Z,21.93
2018-09-27T06:54:05.125Z,21.99
2018-09-27T06:56:31.507Z,21.91
2018-09-27T06:58:57.914Z,22.16
2018-09-27T07:01:24.299Z,22.27
2018-09-27T07:03:50.730Z,22.35
2018-09-27T07:06:17.189Z,22.39
2018-09-27T07:08:43.579Z,22.42
2018-09-27T07:11:09.927Z,22.57
2018-09-27T07:13:36.364Z,22.57
2018-09-27T07:16:02.757Z,22.64
2018-09-27T07:18:29.258Z,22.65
2018-09-27T07:20:55.676Z,22.49
2018-09-27T07:23:22.115Z,22.72
2018-09-27T07:25:48.517Z,22.77
2018-09-27T07:28:14.941Z,22.84
2018-09-27T07:30:41.325Z,22.82
2018-09-27T07:33:07.754Z,22.87
2018-09-27T07:35:34.304Z,22.96
2018-09-27T07:38:00.838Z,23.01
2018-09-27T07:40:27.472Z,23.05
2018-09-27T07:42:53.908Z,23.22
2018-09-27T07:45:20.297Z,23.23
2018-09-27T07:47:46.835Z,23.32
2018-09-27T07:50:13.316Z,23.34
2018-09-27T07:52:39.729Z,23.41
2018-09-27T07:55:06.121Z,23.43
2018-09-27T07:57:32.590Z,23.44
2018-09-27T07:59:58.984Z,23.54
2018-09-27T08:02:25.386Z,23.53
2018-09-27T08:04:51.899Z,23.57
2018-09-27T08:07:18.313Z,23.50
2018-09-27T08:09:44.725Z,23.63
2018-09-27T08:12:11.117Z,23.60
2018-09-27T08:14:37.540Z,23.54
2018-09-27T08:17:03.936Z,23.62
2018-09-27T08:19:30.290Z,23.69
2018-09-27T08:21:56.679Z,23.75
2018-09-27T08:24:23.079Z,23.65
2018-09-27T08:26:49.508Z,23.70
2018-09-27T08:29:15.868Z,23.62
2018-09-27T08:31:42.306Z,23.68
2018-09-27T08:34:08.664Z,23.73
2018-09-27T08:36:35.012Z,23.66
2018-09-27T08:39:01.423Z,23.72
2018-09-27T08:41:27.832Z,23.71
2018-09-27T08:43:54.233Z,23.74
2018-09-27T08:46:20.703Z,23.76
2018-09-27T08:48:47.096Z,23.65
2018-09-27T08:51:13.424Z,23.70
2018-09-27T08:53:39.794Z,23.71
2018-09-27T08:56:06.368Z,23.65
2018-09-27T08:58:32.707Z,23.67
2018-09-27T09:00:59.098Z,23.69
2018-09-27T09:03:25.517Z,23.57
2018-09-27T09:05:51.812Z,23.57
2018-09-27T09:08:18.204Z,23.58
2018-09-27T09:10:44.611Z,23.47
2018-09-27T09:13:10.976Z,23.44
2018-09-27T09:15:37.483Z,23.48
2018-09-27T09:18:03.769Z,23.48
2018-09-27T09:20:30.203Z,23.46
2018-09-27T09:22:57.095Z,23.41
2018-09-27T09:25:23.724Z,23.42
2018-09-27T09:27:50.083Z,23.42
2018-09-27T09:30:16.478Z,23.37
2018-09-27T09:32:42.929Z,23.41
2018-09-27T09:35:09.324Z,23.43
2018-09-27T09:37:35.791Z,23.43
2018-09-27T09:40:02.221Z,23.40
2018-09-27T09:42:28.738Z,23.50
2018-09-27T09:44:55.219Z,23.52
2018-09-27T09:47:21.694Z,23.48
2018-09-27T09:49:48.211Z,23.46
2018-09-27T09:52:14.643Z,23.52
2018-09-27T09:54:41.018Z,23.54
2018-09-27T09:57:07.409Z,23.56
2018-09-27T09:59:33.828Z,23.52
2018-09-27T10:02:00.248Z,23.51
2018-09-27T10:04:26.630Z,23.56
2018-09-27T10:06:53.111Z,23.49
2018-09-27T10:09:19.580Z,23.53
2018-09-27T10:11:45.984Z,23.55
2018-09-27T10:14:12.435Z,23.57
2018-09-27T10:16:38.860Z,23.50
2018-09-27T10:19:05.248Z,23.54
2018-09-27T10:21:31.704Z,23.54
2018-09-27T10:23:58.079Z,23.53
2018-09-27T10:26:24.492Z,23.48
2018-09-27T10:28:50.863Z,23.52
2018-09-27T10:31:17.353Z,23.46
2018-09-27T10:33:43.735Z,23.48
2018-09-27T10:36:10.139Z,23.48
2018-09-27T10:38:36.536Z,23.44
2018-09-27T10:41:02.964Z,23.41
2018-09-27T10:43:29.368Z,23.44
2018-09-27T10:45:55.802Z,23.33
2018-09-27T10:48:22.314Z,23.40
2018-09-27T10:50:48.764Z,23.37
2018-09-27T10:53:15.206Z,23.40
2018-09-27T10:55:41.641Z,23.35
2018-09-27T10:58:08.095Z,23.32
2018-09-27T11:00:34.480Z,23.33
2018-09-27T11:03:00.936Z,23.33
2018-09-27T11:05:27.352Z,23.27
2018-09-27T11:07:55.575Z,23.37
2018-09-27T11:10:24.095Z,23.31
2018-09-27T11:12:53.345Z,23.30
2018-09-27T11:15:21.396Z,23.31
2018-09-27T11:17:49.497Z,23.23
2018-09-27T11:20:16.728Z,23.34
2018-09-27T11:22:43.875Z,23.33
2018-09-27T11:25:10.485Z,23.37
2018-09-27T11:27:36.920Z,23.32
2018-09-27T11:30:05.887Z,23.38
2018-09-27T11:35:03.832Z,23.38
2018-09-27T11:37:31.292Z,23.40
2018-09-27T11:39:57.728Z,23.42
2018-09-27T11:42:24.277Z,23.48
2018-09-27T11:44:50.793Z,23.40
2018-09-27T11:47:17.498Z,23.47
2018-09-27T11:49:44.840Z,23.56
2018-09-27T11:52:11.154Z,23.62
2018-09-27T11:54:37.530Z,23.68
2018-09-27T11:57:03.907Z,23.61
2018-09-27T11:59:30.357Z,23.65
2018-09-27T12:01:56.784Z,23.63
2018-09-27T12:04:25.835Z,23.60
2018-09-27T12:06:52.450Z,23.60
2018-09-27T12:09:18.882Z,23.59
2018-09-27T12:11:45.353Z,23.57
2018-09-27T12:14:11.889Z,23.63
2018-09-27T12:16:38.276Z,23.55
2018-09-27T12:19:04.676Z,23.58
2018-09-27T12:21:31.185Z,23.59
2018-09-27T12:23:58.112Z,23.58
2018-09-27T12:26:24.648Z,23.56
2018-09-27T12:28:51.093Z,23.59
2018-09-27T12:31:17.641Z,23.58
2018-09-27T12:33:46.633Z,23.53
2018-09-27T12:36:13.032Z,23.52
2018-09-27T12:38:39.501Z,23.54
2018-09-27T12:41:06.049Z,23.52
2018-09-27T12:43:32.461Z,23.50
2018-09-27T12:45:59.044Z,23.52
2018-09-27T12:48:25.616Z,23.52
2018-09-27T12:50:51.966Z,23.55
2018-09-27T12:53:18.517Z,23.52
2018-09-27T12:55:44.891Z,23.55
2018-09-27T12:58:11.391Z,23.57
2018-09-27T13:00:37.931Z,23.56
2018-09-27T13:03:04.459Z,23.49
2018-09-27T13:05:30.976Z,23.56
2018-09-27T13:07:57.384Z,23.55
2018-09-27T13:10:23.989Z,23.59
2018-09-27T13:12:50.695Z,23.60
2018-09-27T13:15:17.070Z,23.59
2018-09-27T13:17:43.635Z,23.56
2018-09-27T13:20:10.321Z,23.57
2018-09-27T13:22:36.690Z,23.60
2018-09-27T13:25:03.111Z,23.72
2018-09-27T13:27:29.694Z,23.64
2018-09-27T13:29:57.084Z,23.74
2018-09-27T13:32:23.432Z,23.77
2018-09-27T13:34:49.823Z,23.74
2018-09-27T13:37:16.178Z,23.74
2018-09-27T13:39:42.632Z,23.79
2018-09-27T13:42:09.105Z,23.75
2018-09-27T13:44:35.541Z,23.76
2018-09-27T13:47:01.888Z,23.74
2018-09-27T13:49:28.298Z,23.81
2018-09-27T13:51:54.797Z,23.75
2018-09-27T13:54:21.347Z,23.75
2018-09-27T13:56:47.836Z,23.78
2018-09-27T13:59:14.341Z,23.72
2018-09-27T14:01:40.898Z,23.80
2018-09-27T14:04:07.264Z,23.85
2018-09-27T14:06:33.689Z,23.80
2018-09-27T14:09:00.243Z,23.77
2018-09-27T14:11:26.674Z,23.71
2018-09-27T14:13:53.155Z,23.79
2018-09-27T14:16:19.642Z,23.75
2018-09-27T14:18:46.097Z,23.78
2018-09-27T14:21:12.475Z,23.76
2018-09-27T14:23:38.873Z,23.77
2018-09-27T14:26:05.375Z,23.71
2018-09-27T14:28:31.837Z,23.75
2018-09-27T14:30:58.301Z,23.73
2018-09-27T14:33:24.672Z,23.76
2018-09-27T14:35:51.061Z,23.72
2018-09-27T14:38:17.433Z,23.71
2018-09-27T14:40:43.791Z,23.70
2018-09-27T14:43:10.174Z,23.68
2018-09-27T14:45:36.663Z,23.70
2018-09-27T14:48:03.095Z,23.72
2018-09-27T14:50:29.609Z,23.69
2018-09-27T14:52:56.038Z,23.69
2018-09-27T14:55:22.429Z,23.64
2018-09-27T14:57:48.925Z,23.69
2018-09-27T15:00:15.438Z,23.73
2018-09-27T15:02:41.836Z,23.63
2018-09-27T15:05:08.243Z,23.66
2018-09-27T15:07:34.735Z,23.66
2018-09-27T15:10:01.298Z,23.64
2018-09-27T15:12:28.583Z,23.63
2018-09-27T15:14:54.989Z,23.64
2018-09-27T15:17:21.478Z,23.62
2018-09-27T15:19:47.853Z,23.65
2018-09-27T15:22:14.225Z,23.53
2018-09-27T15:24:40.637Z,23.59
2018-09-27T15:27:07.094Z,23.62
2018-09-27T15:29:33.539Z,23.60
2018-09-27T15:32:00.051Z,23.62
2018-09-27T15:34:26.471Z,23.62
2018-09-27T15:36:52.878Z,23.61
2018-09-27T15:39:19.312Z,23.62
2018-09-27T15:41:45.825Z,23.60
2018-09-27T15:44:12.259Z,23.55
2018-09-27T15:46:39.002Z,23.57
2018-09-27T15:49:05.450Z,23.58
2018-09-27T15:51:31.873Z,23.50
2018-09-27T15:53:58.244Z,23.52
2018-09-27T15:56:24.858Z,23.47
2018-09-27T15:58:51.261Z,23.45
2018-09-27T16:01:17.724Z,23.44
2018-09-27T16:03:44.248Z,23.40
2018-09-27T16:06:10.769Z,23.39
2018-09-27T16:08:37.159Z,23.38
2018-09-27T16:11:03.635Z,23.36
2018-09-27T16:13:30.067Z,23.30
2018-09-27T16:15:56.666Z,23.25
2018-09-27T16:18:23.126Z,23.21
2018-09-27T16:20:49.588Z,23.23
2018-09-27T16:23:16.131Z,23.21
2018-09-27T16:25:42.527Z,23.18
2018-09-27T16:28:09.006Z,23.13
2018-09-27T16:30:35.436Z,23.13
2018-09-27T16:33:01.859Z,23.08
2018-09-27T16:35:28.363Z,23.06
2018-09-27T16:37:54.780Z,23.02
2018-09-27T16:40:21.281Z,22.99
2018-09-27T16:42:47.741Z,22.94
2018-09-27T16:45:14.200Z,22.92
2018-09-27T16:47:40.663Z,22.85
2018-09-27T16:50:07.048Z,22.85
2018-09-27T16:52:33.497Z,22.82
2018-09-27T16:54:59.889Z,22.75
2018-09-27T16:57:26.365Z,22.70
2018-09-27T16:59:52.772Z,22.61
2018-09-27T17:02:19.186Z,22.55
2018-09-27T17:04:45.637Z,22.54
2018-09-27T17:07:12.110Z,22.61
2018-09-27T17:09:38.512Z,22.60
2018-09-27T17:12:05.015Z,22.66
2018-09-27T17:14:31.514Z,22.72
2018-09-27T17:16:57.936Z,22.71
2018-09-27T17:19:24.387Z,22.75
2018-09-27T17:21:50.788Z,22.77
2018-09-27T17:24:17.261Z,22.74
2018-09-27T17:26:43.906Z,22.73
2018-09-27T17:29:10.354Z,22.72
2018-09-27T17:31:36.827Z,22.71
2018-09-27T17:34:03.204Z,22.70
2018-09-27T17:36:29.662Z,22.69
2018-09-27T17:38:56.076Z,22.68
2018-09-27T17:41:22.508Z,22.66
2018-09-27T17:43:48.920Z,22.63
2018-09-27T17:46:15.299Z,22.62
2018-09-27T17:48:42.376Z,22.59
2018-09-27T17:51:08.811Z,22.59
2018-09-27T17:53:35.178Z,22.54
2018-09-27T17:56:01.649Z,22.54
2018-09-27T17:58:28.024Z,22.55
2018-09-27T18:00:54.367Z,22.53
2018-09-27T18:03:20.708Z,22.49
2018-09-27T18:05:47.230Z,22.48
2018-09-27T18:08:13.663Z,22.46
2018-09-27T18:10:40.103Z,22.46
2018-09-27T18:13:06.469Z,22.44
2018-09-27T18:15:32.868Z,22.42
2018-09-27T18:17:59.333Z,22.40
2018-09-27T18:20:25.725Z,22.41
2018-09-27T18:22:52.160Z,22.37
2018-09-27T18:25:18.534Z,22.40
2018-09-27T18:27:44.947Z,22.33
2018-09-27T18:30:11.458Z,22.31
2018-09-27T18:32:37.891Z,22.28
2018-09-27T18:35:04.388Z,22.23
2018-09-27T18:37:30.922Z,22.21
2018-09-27T18:39:57.349Z,22.19
2018-09-27T18:42:23.762Z,22.21
2018-09-27T18:44:50.151Z,22.14
2018-09-27T18:47:16.625Z,22.13
2018-09-27T18:49:43.074Z,22.02
2018-09-27T18:52:10.229Z,22.00
2018-09-27T18:54:36.593Z,22.03
2018-09-27T18:57:02.965Z,22.03
2018-09-27T18:59:29.367Z,21.98
2018-09-27T19:01:55.771Z,21.98
2018-09-27T19:04:22.116Z,21.99
2018-09-27T19:06:48.493Z,21.90
2018-09-27T19:09:14.828Z,21.90
2018-09-27T19:11:41.266Z,21.89
2018-09-27T19:14:07.612Z,21.87
2018-09-27T19:16:34.014Z,21.79
2018-09-27T19:19:00.380Z,21.83
2018-09-27T19:21:26.819Z,21.77
2018-09-27T19:23:53.248Z,21.72
2018-09-27T19:26:19.610Z,21.72
2018-09-27T19:28:46.018Z,21.70
2018-09-27T19:31:12.421Z,21.69
2018-09-27T19:33:38.788Z,21.66
2018-09-27T19:36:05.120Z,21.64
2018-09-27T19:38:31.503Z,21.62
2018-09-27T19:40:57.841Z,21.60
2018-09-27T19:43:24.281Z,21.59
2018-09-27T19:45:50.677Z,21.57
2018-09-27T19:48:17.165Z,21.55
2018-09-27T19:50:43.537Z,21.48
2018-09-27T19:53:09.882Z,21.49
2018-09-27T19:55:36.222Z,21.49
2018-09-27T19:58:02.587Z,21.49
2018-09-27T20:00:28.947Z,21.45
2018-09-27T20:02:55.324Z,21.36
2018-09-27T20:05:21.660Z,21.43
2018-09-27T20:07:47.992Z,21.37
2018-09-27T20:10:14.375Z,21.27
2018-09-27T20:12:40.682Z,21.32
2018-09-27T20:15:07.017Z,21.32
2018-09-27T20:17:33.351Z,21.28
2018-09-27T20:19:59.676Z,21.28
2018-09-27T20:22:26.118Z,21.27
2018-09-27T20:24:52.486Z,21.18
2018-09-27T20:27:18.844Z,21.20
2018-09-27T20:29:45.188Z,21.16
2018-09-27T20:32:11.568Z,21.15
2018-09-27T20:34:38.002Z,21.14
2018-09-27T20:37:04.319Z,21.15
2018-09-27T20:39:30.695Z,21.10
2018-09-27T20:41:57.032Z,21.05
2018-09-27T20:44:23.421Z,21.00
2018-09-27T20:46:49.798Z,20.99
2018-09-27T20:49:16.127Z,20.99
2018-09-27T20:51:42.464Z,20.95
2018-09-27T20:54:08.797Z,20.93
2018-09-27T20:56:35.135Z,20.90
2018-09-27T20:59:01.529Z,20.84
2018-09-27T21:01:27.926Z,20.84
2018-09-27T21:03:54.256Z,20.75
2018-09-27T21:06:20.624Z,20.74
2018-09-27T21:08:47.020Z,20.72
2018-09-27T21:11:13.402Z,20.67
2018-09-27T21:13:39.888Z,20.63
2018-09-27T21:16:06.222Z,20.64
2018-09-27T21:18:32.543Z,20.64
2018-09-27T21:20:58.876Z,20.57
2018-09-27T21:23:25.207Z,20.57
2018-09-27T21:25:51.563Z,20.53
2018-09-27T21:28:17.908Z,20.50
2018-09-27T21:30:44.257Z,20.49
2018-09-27T21:33:10.588Z,20.45
2018-09-27T21:35:36.928Z,20.43
2018-09-27T21:38:03.360Z,20.42
2018-09-27T21:40:29.720Z,20.41
2018-09-27T21:42:56.053Z,20.39
2018-09-27T21:45:22.385Z,20.35
2018-09-27T21:47:48.718Z,20.34
2018-09-27T21:50:15.145Z,20.33
2018-09-27T21:52:41.476Z,20.30
2018-09-27T21:55:07.834Z,20.31
2018-09-27T21:57:34.240Z,20.29
2018-09-27T22:00:00.610Z,20.21
2018-09-27T22:02:26.960Z,20.26
2018-09-27T22:04:53.375Z,20.23
2018-09-27T22:07:19.740Z,20.19
2018-09-27T22:09:46.104Z,20.18
2018-09-27T22:12:12.450Z,20.15
2018-09-27T22:14:38.795Z,20.11
2018-09-27T22:17:05.153Z,20.16
2018-09-27T22:19:31.505Z,20.11
2018-09-27T22:21:57.875Z,20.09
2018-09-27T22:24:24.268Z,20.10
2018-09-27T22:26:50.625Z,20.07
2018-09-27T22:29:16.979Z,20.04
2018-09-27T22:31:43.338Z,20.03
2018-09-27T22:34:09.719Z,20.04
2018-09-27T22:36:36.160Z,20.04
2018-09-27T22:39:02.514Z,20.01
2018-09-27T22:41:28.929Z,19.99
2018-09-27T22:43:55.260Z,19.96
2018-09-27T22:46:21.633Z,19.93
2018-09-27T22:48:48.037Z,19.91
2018-09-27T22:51:14.455Z,19.90
2018-09-27T22:53:40.810Z,19.88
2018-09-27T22:56:07.217Z,19.87
2018-09-27T22:58:33.599Z,19.89
2018-09-27T23:00:59.954Z,19.85
2018-09-27T23:03:26.333Z,19.85
2018-09-27T23:05:52.695Z,19.81
2018-09-27T23:08:19.130Z,19.81
2018-09-27T23:10:45.520Z,19.80
2018-09-27T23:13:11.892Z,19.76
2018-09-27T23:15:38.320Z,19.78
2018-09-27T23:18:04.729Z,19.78
2018-09-27T23:20:31.078Z,19.76
2018-09-27T23:22:57.514Z,19.74
2018-09-27T23:25:23.876Z,19.74
2018-09-27T23:27:50.406Z,19.69
2018-09-27T23:30:16.771Z,19.67
2018-09-27T23:32:43.470Z,19.65
2018-09-27T23:35:09.873Z,19.63
2018-09-27T23:37:36.243Z,19.65
2018-09-27T23:40:02.665Z,19.63
2018-09-27T23:42:29.004Z,19.63
2018-09-27T23:44:55.400Z,19.62
2018-09-27T23:47:21.784Z,19.59
2018-09-27T23:49:48.117Z,19.58
2018-09-27T23:52:14.510Z,19.58
2018-09-27T23:54:40.861Z,19.54
2018-09-27T23:57:07.263Z,19.52
2018-09-27T23:59:33.653Z,19.51
